Time;durP1;ratioP1;P1;durP2;ratioP2;P2;SDS_P1;SDS_P2;PMS_P1;PMS_P2;Temp;Humidity;BMP_temperature;BMP_pressure;BME280_temperature;BME280_humidity;BME280_pressure;Samples;Min_cycle;Max_cycle;Signal;HPM_P1;HPM_P2
2024/03/11 00:00:26;;;;;;;41.15;19.35;;;;;;;7.89;100.00;99888.19;6083663;19;20014;-77
2024/03/11 00:02:31;;;;;;;38.00;18.80;;;;;;;7.80;100.00;99886.00;6085782;19;20787;-73
2024/03/11 00:04:37;;;;;;;43.47;19.52;;;;;;;7.80;100.00;99899.09;6082331;19;20367;-73
2024/03/11 00:06:44;;;;;;;37.55;18.27;;;;;;;7.80;100.00;99895.63;6085108;19;20043;-73
2024/03/11 00:08:52;;;;;;;34.65;17.95;;;;;;;7.81;100.00;99899.94;6083772;19;20006;-73
2024/03/11 00:11:00;;;;;;;33.65;17.92;;;;;;;7.88;100.00;99904.81;6083275;19;20007;-73
2024/03/11 00:13:03;;;;;;;38.92;17.60;;;;;;;7.82;100.00;99896.38;6083368;19;20011;-74
2024/03/11 00:15:11;;;;;;;42.65;20.15;;;;;;;7.81;100.00;99895.53;6081136;19;20211;-74
2024/03/11 00:17:15;;;;;;;41.60;19.23;;;;;;;7.83;100.00;99901.56;6082560;19;20506;-74
2024/03/11 00:19:20;;;;;;;37.33;18.17;;;;;;;7.82;100.00;99905.09;6081797;19;20470;-72
2024/03/11 00:21:28;;;;;;;39.58;17.58;;;;;;;7.76;100.00;99899.28;6082954;19;20574;-76
2024/03/11 00:23:30;;;;;;;37.47;17.40;;;;;;;7.74;100.00;99899.38;6084814;19;20011;-76
2024/03/11 00:25:39;;;;;;;;;;;;;;;7.76;100.00;99897.50;6085134;19;20079;-72
2024/03/11 00:27:44;;;;;;;37.45;17.00;;;;;;;7.80;100.00;99901.69;6088455;19;20603;-72
2024/03/11 00:29:50;;;;;;;37.13;18.52;;;;;;;7.71;100.00;99902.09;6087768;19;20074;-73
2024/03/11 00:31:55;;;;;;;41.08;18.80;;;;;;;7.67;100.00;99893.53;6087907;19;20066;-73
2024/03/11 00:34:01;;;;;;;35.58;17.80;;;;;;;7.64;100.00;99893.69;6086911;19;20003;-73
2024/03/11 00:36:07;;;;;;;40.58;18.25;;;;;;;7.61;100.00;99893.81;6086346;19;20137;-73
2024/03/11 00:38:12;;;;;;;34.05;15.27;;;;;;;7.59;100.00;99889.56;6088132;19;20090;-73
2024/03/11 00:40:18;;;;;;;41.40;17.95;;;;;;;7.56;100.00;99884.47;6087277;19;20057;-73
2024/03/11 00:42:28;;;;;;;37.90;19.45;;;;;;;7.52;100.00;99893.34;6088776;19;20359;-73
2024/03/11 00:44:33;;;;;;;33.05;16.95;;;;;;;7.51;100.00;99897.75;6087555;19;20018;-74
2024/03/11 00:46:38;;;;;;;34.00;16.63;;;;;;;7.51;100.00;99896.91;6088095;19;20017;-73
2024/03/11 00:48:43;;;;;;;39.08;18.23;;;;;;;7.48;100.00;99901.34;6089154;19;20007;-78
2024/03/11 00:50:48;;;;;;;32.33;17.50;;;;;;;7.54;100.00;99905.44;6089594;19;20505;-73
2024/03/11 00:52:51;;;;;;;35.15;16.77;;;;;;;7.54;100.00;99904.59;6087258;19;20015;-73
2024/03/11 00:54:56;;;;;;;;;;;;;;;7.55;100.00;99903.69;6088412;19;20069;-73
2024/03/11 00:57:01;;;;;;;34.05;16.38;;;;;;;7.56;100.00;99914.09;6088445;19;19929;-73
2024/03/11 00:59:09;;;;;;;36.97;17.58;;;;;;;7.57;100.00;99914.94;6085755;19;20013;-73
2024/03/11 01:01:16;;;;;;;39.08;18.17;;;;;;;7.54;100.00;99915.06;6085261;19;20485;-73
2024/03/11 01:03:22;;;;;;;34.03;16.48;;;;;;;7.51;100.00;99923.03;6086092;19;20334;-73
2024/03/11 01:05:29;;;;;;;36.42;17.00;;;;;;;7.45;100.00;99911.94;6086390;19;20043;-73
2024/03/11 01:07:35;;;;;;;40.00;17.52;;;;;;;7.39;100.00;99920.00;6088545;19;20007;-73
2024/03/11 01:09:50;;;;;;;37.08;18.27;;;;;;;7.38;100.00;99920.09;6082191;19;20011;-73
2024/03/11 01:11:56;;;;;;;39.50;18.42;;;;;;;7.35;100.00;99918.47;6086921;19;20007;-74
2024/03/11 01:14:01;;;;;;;40.65;19.60;;;;;;;7.35;100.00;99915.00;6080828;19;20041;-73
2024/03/11 01:16:11;;;;;;;36.42;16.95;;;;;;;7.31;100.00;99909.03;6085606;19;20010;-73
2024/03/11 01:18:16;;;;;;;40.15;19.60;;;;;;;7.31;100.00;99919.47;6085681;19;20010;-73
2024/03/11 01:20:24;;;;;;;33.85;16.52;;;;;;;7.28;100.00;99924.84;6087188;19;20004;-74
2024/03/11 01:22:43;;;;;;;35.80;17.85;;;;;;;7.23;100.00;99919.81;6088569;19;20149;-74
2024/03/11 01:24:47;;;;;;;33.47;18.42;;;;;;;7.20;100.00;99922.53;6086966;19;20007;-74
2024/03/11 01:26:57;;;;;;;34.10;16.92;;;;;;;7.18;100.00;99923.53;6088633;19;20547;-76
2024/03/11 01:29:29;;;;;;;39.83;17.48;;;;;;;7.18;100.00;99926.13;6087447;19;20011;-77
2024/03/11 01:31:37;;;;;;;34.67;16.38;;;;;;;7.16;100.00;99922.72;6088964;19;20010;-77
2024/03/11 01:33:43;;;;;;;39.55;17.77;;;;;;;7.16;100.00;99920.13;6087058;19;20074;-77
2024/03/11 01:35:48;;;;;;;32.63;16.73;;;;;;;7.13;100.00;99918.47;6088452;19;20010;-73
2024/03/11 01:37:53;;;;;;;36.10;18.42;;;;;;;7.13;100.00;99917.63;6086039;19;20021;-73
2024/03/11 01:39:56;;;;;;;33.60;18.45;;;;;;;7.11;100.00;99917.72;6087028;19;20018;-73
2024/03/11 01:42:01;;;;;;;41.85;17.95;;;;;;;7.11;100.00;99906.38;6081489;19;20027;-73
2024/03/11 01:44:09;;;;;;;31.77;16.25;;;;;;;7.08;100.00;99912.59;6088153;19;20047;-73
2024/03/11 01:46:14;;;;;;;38.53;17.80;;;;;;;7.11;100.00;99916.84;6086719;19;20031;-77
2024/03/11 01:48:26;;;;;;;36.63;17.98;;;;;;;7.08;100.00;99915.19;6085344;19;20010;-74
2024/03/11 01:50:31;;;;;;;38.08;17.83;;;;;;;7.07;100.00;99917.91;6084607;19;20007;-73
2024/03/11 01:52:36;;;;;;;37.65;16.63;;;;;;;7.09;100.00;99909.09;6084911;19;20037;-73
2024/03/11 01:54:41;;;;;;;41.83;18.02;;;;;;;7.11;100.00;99909.00;6084327;19;20014;-73
2024/03/11 01:56:49;;;;;;;40.33;19.42;;;;;;;7.07;100.00;99910.06;6084438;19;20010;-73
2024/03/11 01:58:55;;;;;;;36.03;17.73;;;;;;;7.09;100.00;99903.00;6084335;19;20003;-73
2024/03/11 02:01:00;;;;;;;38.13;18.30;;;;;;;7.13;100.00;99904.56;6084723;19;20130;-78
2024/03/11 02:03:06;;;;;;;34.70;17.08;;;;;;;7.11;100.00;99898.56;6084879;19;20010;-78
2024/03/11 02:05:15;;;;;;;40.13;18.05;;;;;;;7.08;100.00;99896.06;6085844;19;20795;-76
2024/03/11 02:07:22;;;;;;;40.55;18.20;;;;;;;7.06;100.00;99903.13;6086254;19;20018;-74
2024/03/11 02:09:28;;;;;;;38.40;18.30;;;;;;;7.05;100.00;99891.81;6086820;19;20102;-76
2024/03/11 02:11:33;;;;;;;35.42;18.52;;;;;;;7.09;100.00;99892.56;6087062;19;20079;-72
2024/03/11 02:13:38;;;;;;;38.55;18.98;;;;;;;7.12;100.00;99893.28;6086646;19;20010;-72
2024/03/11 02:15:43;;;;;;;40.42;19.33;;;;;;;7.20;100.00;99903.41;6085905;19;20124;-74
2024/03/11 02:17:49;;;;;;;38.22;19.98;;;;;;;7.18;100.00;99893.00;6084373;19;20098;-73
2024/03/11 02:19:54;;;;;;;40.30;18.70;;;;;;;7.16;100.00;99894.00;6086235;19;20010;-73
2024/03/11 02:22:02;;;;;;;42.45;20.52;;;;;;;7.14;100.00;99898.44;6087808;19;20010;-72
2024/03/11 02:24:10;;;;;;;41.10;18.85;;;;;;;7.08;100.00;99894.31;6084948;19;20484;-72
2024/03/11 02:26:18;;;;;;;46.55;20.10;;;;;;;7.11;100.00;99898.56;6084577;19;20313;-76
2024/03/11 02:28:23;;;;;;;41.20;19.30;;;;;;;7.15;100.00;99902.75;6081243;19;20014;-76
2024/03/11 02:30:32;;;;;;;46.05;20.67;;;;;;;7.18;100.00;99900.84;6086201;19;20082;-76
2024/03/11 02:32:35;;;;;;;41.50;18.45;;;;;;;7.22;100.00;99902.44;6086241;19;20006;-77
2024/03/11 02:34:40;;;;;;;;;;;;;;;7.24;100.00;99904.97;6087214;19;20336;-76
2024/03/11 02:36:47;;;;;;;32.78;17.38;;;;;;;7.27;100.00;99899.63;6085533;19;19923;-76
2024/03/11 02:38:52;;;;;;;42.08;20.05;;;;;;;7.27;100.00;99902.25;6086721;19;20014;-73
2024/03/11 02:41:00;;;;;;;42.08;18.98;;;;;;;7.26;100.00;99904.00;6085068;19;20289;-73
2024/03/11 02:43:02;;;;;;;39.10;18.75;;;;;;;7.30;100.00;99909.13;6083977;19;20010;-77
2024/03/11 02:45:08;;;;;;;42.70;18.77;;;;;;;7.31;100.00;99916.03;6083724;19;20006;-73
2024/03/11 02:47:13;;;;;;;40.63;19.10;;;;;;;7.36;100.00;99912.31;6084701;19;20015;-73
2024/03/11 02:49:19;;;;;;;46.33;19.33;;;;;;;7.40;100.00;99900.81;6084818;19;20014;-76
2024/03/11 02:51:24;;;;;;;42.78;19.70;;;;;;;7.43;100.00;99900.69;6087774;19;20473;-75
2024/03/11 02:53:34;;;;;;;43.63;20.13;;;;;;;7.36;100.00;99903.63;6083086;19;20087;-73
2024/03/11 02:55:40;;;;;;;39.88;20.50;;;;;;;7.33;100.00;99907.22;6085857;19;20375;-74
2024/03/11 02:57:48;;;;;;;37.97;19.48;;;;;;;7.30;100.00;99901.28;6083578;19;20030;-73
2024/03/11 02:59:54;;;;;;;36.63;20.27;;;;;;;7.23;100.00;99905.88;6084816;19;20010;-77
2024/03/11 03:01:59;;;;;;;41.35;18.70;;;;;;;7.24;100.00;99913.69;6085686;19;20061;-77
2024/03/11 03:04:05;;;;;;;44.38;20.40;;;;;;;7.21;100.00;99912.94;6086231;19;20702;-73
2024/03/11 03:06:11;;;;;;;39.53;19.17;;;;;;;7.21;100.00;99915.56;6084846;19;20014;-73
2024/03/11 03:08:16;;;;;;;48.08;20.42;;;;;;;7.17;100.00;99912.22;6084584;19;20011;-73
2024/03/11 03:10:22;;;;;;;42.30;19.00;;;;;;;7.14;100.00;99917.59;6086977;19;20345;-77
2024/03/11 03:12:29;;;;;;;40.90;19.35;;;;;;;7.14;100.00;99916.75;6087221;19;20513;-76
2024/03/11 03:14:37;;;;;;;47.67;21.20;;;;;;;7.21;100.00;99920.78;6087115;19;20011;-77
2024/03/11 03:16:42;;;;;;;46.50;20.38;;;;;;;7.29;100.00;99930.91;6076898;19;20007;-73
2024/03/11 03:18:47;;;;;;;43.40;20.42;;;;;;;7.31;100.00;99929.94;6085146;19;20046;-73
2024/03/11 03:20:52;;;;;;;44.03;19.70;;;;;;;7.32;100.00;99918.59;6084207;19;20350;-73
2024/03/11 03:23:00;;;;;;;44.75;20.65;;;;;;;7.34;100.00;99924.56;6082531;19;20006;-72
2024/03/11 03:25:07;;;;;;;43.10;20.55;;;;;;;7.34;100.00;99935.03;6087002;19;20018;-76
2024/03/11 03:27:12;;;;;;;42.97;18.85;;;;;;;7.41;100.00;99923.41;6083840;19;20022;-72
2024/03/11 03:29:18;;;;;;;44.35;19.58;;;;;;;7.37;100.00;99929.72;6084217;19;20038;-72
2024/03/11 03:31:27;;;;;;;46.22;19.80;;;;;;;7.26;100.00;99931.88;6087749;19;20340;-76
2024/03/11 03:33:32;;;;;;;43.55;20.23;;;;;;;7.28;100.00;99922.22;6090853;19;20463;-76
2024/03/11 03:35:35;;;;;;;44.97;22.38;;;;;;;7.31;100.00;99919.47;6089802;19;20282;-76
2024/03/11 03:37:40;;;;;;;42.03;19.35;;;;;;;7.28;100.00;99924.84;6086721;19;20450;-76
2024/03/11 03:39:45;;;;;;;41.92;20.05;;;;;;;7.28;100.00;99924.84;6087194;19;20726;-76
2024/03/11 03:41:50;;;;;;;51.55;23.00;;;;;;;7.32;100.00;99926.44;6086719;19;20024;-76
2024/03/11 03:43:55;;;;;;;43.33;20.98;;;;;;;7.35;100.00;99923.69;6082816;19;20011;-76
2024/03/11 03:46:00;;;;;;;50.60;20.75;;;;;;;7.34;100.00;99928.97;6085363;19;20127;-76
2024/03/11 03:48:09;;;;;;;42.03;19.70;;;;;;;7.37;100.00;99928.81;6083228;19;20010;-72
2024/03/11 03:50:12;;;;;;;45.08;20.30;;;;;;;7.35;100.00;99931.53;6083761;19;20042;-76
2024/03/11 03:52:17;;;;;;;47.28;21.50;;;;;;;7.31;100.00;99929.94;6082294;19;20007;-77
2024/03/11 03:54:23;;;;;;;47.53;20.63;;;;;;;7.28;100.00;99930.06;6083100;19;20015;-77
2024/03/11 03:56:29;;;;;;;48.03;22.23;;;;;;;7.28;100.00;99931.84;6084020;19;20735;-73
2024/03/11 03:58:36;;;;;;;45.35;20.35;;;;;;;7.23;100.00;99926.78;6081715;19;20014;-73
2024/03/11 04:00:41;;;;;;;42.72;18.67;;;;;;;7.25;100.00;99930.19;6083447;19;20023;-73
2024/03/11 04:02:48;;;;;;;44.55;19.60;;;;;;;7.26;100.00;99924.06;6082774;19;20011;-74
2024/03/11 04:04:55;;;;;;;44.70;20.98;;;;;;;7.23;100.00;99919.81;6087816;19;20475;-73
2024/03/11 04:07:00;;;;;;;50.80;21.02;;;;;;;7.29;100.00;99923.06;6087605;19;20475;-72
2024/03/11 04:09:09;;;;;;;48.65;21.80;;;;;;;7.22;100.00;99920.72;6089539;19;20433;-73
2024/03/11 04:11:14;;;;;;;50.03;20.80;;;;;;;7.23;100.00;99926.78;6087325;19;20574;-73
2024/03/11 04:13:19;;;;;;;47.60;22.20;;;;;;;7.25;100.00;99927.59;6087134;19;20038;-73
2024/03/11 04:15:24;;;;;;;44.53;20.73;;;;;;;7.22;100.00;99928.56;6089936;19;20503;-73
2024/03/11 04:17:26;;;;;;;47.70;21.23;;;;;;;7.23;100.00;99934.63;6087743;19;20010;-73
2024/03/11 04:19:31;;;;;;;47.25;20.15;;;;;;;7.25;100.00;99932.81;6088804;19;20021;-73
2024/03/11 04:21:40;;;;;;;44.08;20.25;;;;;;;7.22;100.00;99931.19;6087643;19;20017;-73
2024/03/11 04:23:46;;;;;;;49.60;21.77;;;;;;;7.18;100.00;99929.59;6090157;19;20025;-73
2024/03/11 04:25:52;;;;;;;49.83;21.48;;;;;;;7.16;100.00;99928.84;6088336;19;20011;-73
2024/03/11 04:27:59;;;;;;;51.58;22.02;;;;;;;7.15;100.00;99926.25;6088945;19;20007;-73
2024/03/11 04:30:05;;;;;;;48.80;22.85;;;;;;;7.17;100.00;99924.44;6089109;19;19998;-73
2024/03/11 04:32:10;;;;;;;45.47;22.95;;;;;;;7.19;100.00;99935.69;6088508;19;20032;-73
2024/03/11 04:34:15;;;;;;;47.65;21.92;;;;;;;7.22;100.00;99933.78;6089967;19;20042;-73
2024/03/11 04:36:20;;;;;;;49.75;22.30;;;;;;;7.19;100.00;99933.06;6089248;19;20322;-73
2024/03/11 04:38:29;;;;;;;49.65;22.73;;;;;;;7.15;100.00;99936.72;6088527;19;20462;-73
2024/03/11 04:40:36;;;;;;;47.17;22.58;;;;;;;7.15;100.00;99928.88;6089404;19;20015;-77
2024/03/11 04:42:38;;;;;;;50.20;22.00;;;;;;;7.19;100.00;99928.69;6090338;19;20018;-75
2024/03/11 04:44:44;;;;;;;48.70;22.98;;;;;;;7.17;100.00;99932.28;6087451;19;20007;-76
2024/03/11 04:46:49;;;;;;;45.28;21.33;;;;;;;7.10;100.00;99930.81;6083525;19;20425;-75
2024/03/11 04:48:54;;;;;;;51.63;21.58;;;;;;;7.08;100.00;99932.66;6088263;19;20011;-75
2024/03/11 04:51:02;;;;;;;51.83;23.20;;;;;;;7.07;100.00;99939.63;6088107;19;20637;-76
2024/03/11 04:53:10;;;;;;;48.90;20.48;;;;;;;7.11;100.00;99938.63;6086438;19;21422;-76
2024/03/11 04:55:16;;;;;;;49.42;21.15;;;;;;;7.11;100.00;99935.13;6088597;19;20559;-76
2024/03/11 04:57:21;;;;;;;50.25;22.52;;;;;;;7.08;100.00;99945.72;6088645;19;20023;-76
2024/03/11 04:59:27;;;;;;;49.20;21.75;;;;;;;7.07;100.00;99936.19;6087373;19;20610;-74
2024/03/11 05:01:32;;;;;;;48.97;20.15;;;;;;;7.06;100.00;99935.34;6085260;19;20046;-74
2024/03/11 05:03:35;;;;;;;46.10;20.88;;;;;;;7.04;100.00;99931.94;6085041;19;20018;-74
2024/03/11 05:05:40;;;;;;;48.45;21.75;;;;;;;7.03;100.00;99935.47;6088319;19;20467;-78
2024/03/11 05:07:46;;;;;;;55.17;22.95;;;;;;;7.03;100.00;99928.47;6087140;19;20034;-73
2024/03/11 05:09:51;;;;;;;62.00;24.90;;;;;;;7.02;100.00;99929.38;6089276;19;20019;-74
2024/03/11 05:12:00;;;;;;;51.45;21.77;;;;;;;7.01;100.00;99932.06;6085895;19;20769;-73
2024/03/11 05:14:06;;;;;;;62.67;23.90;;;;;;;7.01;100.00;99932.06;6087604;19;20013;-73
2024/03/11 05:16:11;;;;;;;54.83;23.80;;;;;;;7.02;100.00;99939.81;6087489;19;20010;-73
2024/03/11 05:18:18;;;;;;;55.00;23.90;;;;;;;6.95;100.00;99935.78;6086884;19;20006;-73
2024/03/11 05:20:24;;;;;;;54.65;23.98;;;;;;;6.96;100.00;99934.00;6087338;19;20592;-76
2024/03/11 05:22:26;;;;;;;53.08;23.27;;;;;;;6.98;100.00;99934.81;6086803;19;20018;-76
2024/03/11 05:24:32;;;;;;;54.08;24.25;;;;;;;6.97;100.00;99940.91;6087781;19;20011;-76
2024/03/11 05:26:37;;;;;;;55.95;24.90;;;;;;;6.91;100.00;99949.00;6087642;19;20006;-76
2024/03/11 05:28:45;;;;;;;57.53;25.40;;;;;;;6.89;100.00;99946.44;6087682;19;20539;-76
2024/03/11 05:30:50;;;;;;;55.17;23.48;;;;;;;6.86;100.00;99951.78;6089267;19;20113;-73
2024/03/11 05:32:56;;;;;;;65.38;26.20;;;;;;;6.81;100.00;99949.34;6086897;19;20007;-75
2024/03/11 05:35:01;;;;;;;58.20;26.38;;;;;;;6.79;100.00;99951.19;6086970;19;20348;-76
2024/03/11 05:37:07;;;;;;;60.05;24.27;;;;;;;6.84;100.00;99963.22;6087244;19;20014;-76
2024/03/11 05:39:12;;;;;;;57.80;25.58;;;;;;;6.81;100.00;99969.41;6089445;19;20006;-76
2024/03/11 05:41:17;;;;;;;59.58;23.20;;;;;;;6.84;100.00;99971.03;6088035;19;20147;-72
2024/03/11 05:43:23;;;;;;;56.53;23.73;;;;;;;6.84;100.00;99977.09;6085691;19;20010;-73
2024/03/11 05:45:31;;;;;;;59.65;25.17;;;;;;;6.81;100.00;99977.22;6084916;19;20008;-74
2024/03/11 05:47:34;;;;;;;57.60;25.02;;;;;;;6.89;100.00;99985.63;6087151;19;20333;-73
2024/03/11 05:49:41;;;;;;;64.30;25.48;;;;;;;6.87;100.00;99982.22;6085867;19;20458;-73
2024/03/11 05:51:46;;;;;;;53.50;23.67;;;;;;;6.86;100.00;99985.75;6082590;19;20006;-73
2024/03/11 05:53:53;;;;;;;61.50;25.73;;;;;;;6.86;100.00;99996.19;6083543;19;20382;-73
2024/03/11 05:55:58;;;;;;;60.22;25.35;;;;;;;6.88;100.00;99986.53;6086137;19;20014;-72
2024/03/11 05:58:08;;;;;;;63.13;24.83;;;;;;;6.92;100.00;100002.94;6085370;19;20498;-73
2024/03/11 06:00:15;;;;;;;66.88;27.25;;;;;;;6.91;100.00;100002.09;6083708;19;20007;-77
2024/03/11 06:02:25;;;;;;;62.03;26.20;;;;;;;6.87;100.00;99994.41;6086093;19;20462;-76
2024/03/11 06:04:28;;;;;;;57.10;25.65;;;;;;;6.91;100.00;99993.41;6087507;19;20039;-77
2024/03/11 06:06:33;;;;;;;64.15;26.90;;;;;;;6.86;100.00;100004.03;6089329;19;20467;-76
2024/03/11 06:08:39;;;;;;;57.88;26.05;;;;;;;6.88;100.00;100012.66;6086318;19;20497;-76
2024/03/11 06:10:44;;;;;;;68.75;28.00;;;;;;;6.85;100.00;100001.50;6087842;19;20420;-77
2024/03/11 06:12:49;;;;;;;60.40;27.35;;;;;;;6.86;100.00;100014.47;6088892;19;20237;-78
2024/03/11 06:14:55;;;;;;;57.25;27.35;;;;;;;6.83;100.00;100014.59;6087617;19;20490;-73
2024/03/11 06:17:00;;;;;;;60.65;25.80;;;;;;;6.80;100.00;100015.56;6082134;19;20010;-75
2024/03/11 06:19:10;;;;;;;60.78;27.83;;;;;;;6.80;100.00;100026.00;6086053;19;20387;-72
2024/03/11 06:21:15;;;;;;;65.05;27.35;;;;;;;6.87;100.00;100023.16;6084749;19;20011;-74
2024/03/11 06:23:27;;;;;;;69.57;27.45;;;;;;;6.88;100.00;100030.94;6083852;19;20098;-73
2024/03/11 06:25:30;;;;;;;60.92;26.88;;;;;;;6.87;100.00;100031.81;6087122;19;20566;-72
2024/03/11 06:27:36;;;;;;;65.53;27.02;;;;;;;6.86;100.00;100029.28;6087241;19;20549;-73
2024/03/11 06:29:38;;;;;;;57.03;23.40;;;;;;;6.92;100.00;100031.66;6086302;19;20322;-73
2024/03/11 06:31:46;;;;;;;60.85;26.50;;;;;;;6.92;100.00;100029.03;6086534;19;20003;-73
2024/03/11 06:33:52;;;;;;;66.72;27.95;;;;;;;6.91;100.00;100032.59;6087171;19;20018;-73
2024/03/11 06:35:59;;;;;;;61.05;27.30;;;;;;;6.91;100.00;100036.03;6085586;19;20463;-73
2024/03/11 06:38:05;;;;;;;59.40;26.20;;;;;;;6.92;100.00;100042.94;6086751;19;20010;-73
2024/03/11 06:40:11;;;;;;;67.22;27.33;;;;;;;6.91;100.00;100046.47;6087524;19;20110;-73
2024/03/11 06:42:17;;;;;;;56.15;23.90;;;;;;;6.92;100.00;100042.94;6085078;19;20573;-73
2024/03/11 06:44:22;;;;;;;62.15;25.55;;;;;;;6.93;100.00;100041.22;6084344;19;20082;-73
2024/03/11 06:46:42;;;;;;;60.65;25.08;;;;;;;6.94;100.00;100045.53;6086284;19;20033;-73
2024/03/11 06:48:45;;;;;;;58.25;24.38;;;;;;;6.97;100.00;100048.84;6083970;19;20014;-73
2024/03/11 06:50:51;;;;;;;;;;;;;;;7.00;100.00;100046.16;6088792;19;20115;-77
2024/03/11 06:52:58;;;;;;;60.88;25.15;;;;;;;7.05;100.00;100048.56;6083796;19;19911;-76
2024/03/11 06:55:04;;;;;;;68.03;28.65;;;;;;;7.07;100.00;100056.34;6082747;19;20108;-73
2024/03/11 06:57:10;;;;;;;65.93;26.15;;;;;;;7.06;100.00;100054.63;6085032;19;20123;-73
2024/03/11 06:59:13;;;;;;;72.97;27.63;;;;;;;7.06;100.00;100054.63;6081852;19;20027;-73
2024/03/11 07:01:18;;;;;;;61.13;25.92;;;;;;;7.02;100.00;100049.53;6083468;19;20010;-73
2024/03/11 07:03:26;;;;;;;66.25;27.75;;;;;;;7.01;100.00;100055.69;6082306;19;20010;-73
2024/03/11 07:05:32;;;;;;;60.90;27.45;;;;;;;7.10;100.00;100062.31;6085633;19;20397;-73
2024/03/11 07:07:41;;;;;;;66.80;26.45;;;;;;;7.07;100.00;100065.03;6083189;19;20426;-76
2024/03/11 07:09:49;;;;;;;62.25;27.42;;;;;;;7.06;100.00;100062.47;6083333;19;20015;-76
2024/03/11 07:11:54;;;;;;;73.22;28.67;;;;;;;7.02;100.00;100065.19;6084926;19;20027;-73
2024/03/11 07:14:00;;;;;;;70.63;26.55;;;;;;;7.02;100.00;100065.19;6084360;19;20025;-74
2024/03/11 07:16:06;;;;;;;73.53;29.95;;;;;;;7.03;100.00;100069.53;6082633;19;20456;-75
2024/03/11 07:18:11;;;;;;;65.43;28.42;;;;;;;7.03;100.00;100071.31;6084716;19;20016;-77
2024/03/11 07:20:17;;;;;;;67.47;28.08;;;;;;;7.08;100.00;100073.72;6084956;19;20023;-73
2024/03/11 07:22:20;;;;;;;68.07;27.48;;;;;;;7.09;100.00;100075.44;6085441;19;20015;-75
2024/03/11 07:24:26;;;;;;;60.92;26.05;;;;;;;7.09;100.00;100080.66;6083085;19;20078;-75
2024/03/11 07:26:34;;;;;;;74.00;29.42;;;;;;;7.06;100.00;100084.25;6084848;19;20100;-72
2024/03/11 07:28:39;;;;;;;69.10;29.15;;;;;;;7.08;100.00;100078.94;6084993;19;20091;-76
2024/03/11 07:30:45;;;;;;;73.65;28.83;;;;;;;7.14;100.00;100083.94;6084003;19;20014;-75
2024/03/11 07:32:50;;;;;;;70.95;27.85;;;;;;;7.09;100.00;100085.88;6084599;19;20006;-73
2024/03/11 07:34:58;;;;;;;70.75;28.55;;;;;;;7.07;100.00;100082.47;6088600;19;20009;-77
2024/03/11 07:37:04;;;;;;;64.57;27.05;;;;;;;7.16;100.00;100092.56;6092308;19;20114;-77
2024/03/11 07:39:10;;;;;;;66.13;26.23;;;;;;;7.13;100.00;100084.84;6092027;19;20003;-75
2024/03/11 07:41:16;;;;;;;64.93;26.27;;;;;;;7.14;100.00;100090.03;6090467;19;20006;-73
2024/03/11 07:43:24;;;;;;;66.88;27.90;;;;;;;7.14;100.00;100086.56;6086840;19;20010;-73
2024/03/11 07:45:29;;;;;;;71.32;30.60;;;;;;;7.14;100.00;100092.63;6091145;19;20410;-73
2024/03/11 07:47:34;;;;;;;69.50;27.27;;;;;;;7.17;100.00;100100.34;6088001;19;20622;-73
2024/03/11 07:49:39;;;;;;;64.75;26.50;;;;;;;7.18;100.00;100096.81;6088630;19;20470;-74
2024/03/11 07:51:44;;;;;;;69.68;27.80;;;;;;;7.19;100.00;100097.69;6090537;19;20022;-73
2024/03/11 07:53:46;;;;;;;73.53;28.73;;;;;;;7.27;100.00;100100.84;6087856;19;20007;-76
2024/03/11 07:55:52;;;;;;;68.63;27.95;;;;;;;7.21;100.00;100107.19;6091915;19;20143;-74
2024/03/11 07:57:59;;;;;;;75.50;27.20;;;;;;;7.28;100.00;100106.94;6089091;19;20371;-73
2024/03/11 08:00:09;;;;;;;73.30;26.92;;;;;;;7.29;100.00;100112.09;6089050;19;20526;-76
2024/03/11 08:02:15;;;;;;;65.25;28.60;;;;;;;7.29;100.00;100113.84;6087541;19;20317;-76
2024/03/11 08:04:20;;;;;;;74.70;28.75;;;;;;;7.32;100.00;100112.00;6083848;19;20011;-73
2024/03/11 08:06:28;;;;;;;80.70;30.33;;;;;;;7.29;100.00;100117.31;6083036;19;20684;-73
2024/03/11 08:08:34;;;;;;;81.85;28.15;;;;;;;7.31;100.00;100117.25;6089039;19;20756;-74
2024/03/11 08:10:39;;;;;;;65.47;29.63;;;;;;;7.26;100.00;100126.13;6089036;19;20002;-74
2024/03/11 08:12:47;;;;;;;77.60;28.10;;;;;;;7.32;100.00;100125.06;6087933;19;20163;-73
2024/03/11 08:14:52;;;;;;;68.43;28.55;;;;;;;7.33;100.00;100124.13;6089722;19;19999;-74
2024/03/11 08:17:00;;;;;;;76.63;30.20;;;;;;;7.27;100.00;100127.00;6088949;19;20034;-74
2024/03/11 08:19:05;;;;;;;78.32;30.05;;;;;;;7.35;100.00;100130.16;6090347;19;20007;-75
2024/03/11 08:21:11;;;;;;;75.35;29.25;;;;;;;7.40;100.00;100125.59;6089118;19;20031;-76
2024/03/11 08:23:19;;;;;;;73.32;29.73;;;;;;;7.36;100.00;100124.00;6087406;19;20507;-76
2024/03/11 08:25:27;;;;;;;76.75;29.33;;;;;;;7.32;100.00;100125.06;6088834;19;20086;-76
2024/03/11 08:27:31;;;;;;;71.72;30.92;;;;;;;7.34;100.00;100135.44;6088877;19;20006;-76
2024/03/11 08:29:36;;;;;;;80.68;28.85;;;;;;;7.32;100.00;100138.13;6089402;19;20367;-75
2024/03/11 08:31:41;;;;;;;75.47;30.10;;;;;;;7.37;100.00;100135.31;6087512;19;20339;-75
2024/03/11 08:33:49;;;;;;;74.72;29.92;;;;;;;7.37;100.00;100137.91;6087128;19;20029;-75
2024/03/11 08:35:55;;;;;;;85.07;33.92;;;;;;;7.36;100.00;100139.69;6088681;19;20015;-75
2024/03/11 08:38:01;;;;;;;77.82;31.42;;;;;;;7.38;100.00;100145.72;6089836;19;20364;-76
2024/03/11 08:40:08;;;;;;;85.30;29.77;;;;;;;7.51;100.00;100153.09;6085900;19;19998;-76
2024/03/11 08:42:13;;;;;;;83.30;29.85;;;;;;;7.45;100.00;100152.41;6088457;19;19999;-75
2024/03/11 08:44:18;;;;;;;79.40;31.88;;;;;;;7.50;100.00;100148.75;6089163;19;20006;-77
2024/03/11 08:46:23;;;;;;;80.25;30.73;;;;;;;7.45;100.00;100154.16;6083618;19;20034;-74
2024/03/11 08:48:30;;;;;;;78.47;31.98;;;;;;;7.40;100.00;100149.13;6087611;19;20375;-76
2024/03/11 08:50:41;;;;;;;78.45;32.75;;;;;;;7.43;100.00;100156.00;6087498;19;20372;-76
2024/03/11 08:52:47;;;;;;;70.18;27.23;;;;;;;7.54;100.00;100155.59;6086538;19;20010;-73
2024/03/11 08:54:53;;;;;;;82.75;29.63;;;;;;;7.54;100.00;100166.03;6087545;19;20405;-74
2024/03/11 08:56:59;;;;;;;79.40;30.63;;;;;;;7.57;100.00;100160.69;6088300;19;20011;-76
2024/03/11 08:59:10;;;;;;;75.43;31.70;;;;;;;7.59;100.00;100156.25;6088153;19;20017;-73
2024/03/11 09:01:16;;;;;;;79.00;29.67;;;;;;;7.56;100.00;100154.63;6084642;19;20082;-75
2024/03/11 09:03:23;;;;;;;83.10;30.98;;;;;;;7.55;100.00;100162.50;6085810;19;20006;-75
2024/03/11 09:05:28;;;;;;;81.30;29.20;;;;;;;7.63;100.00;100163.06;6089264;19;20519;-76
2024/03/11 09:07:37;;;;;;;75.68;30.42;;;;;;;7.72;100.00;100162.72;6087435;19;20507;-75
2024/03/11 09:09:42;;;;;;;87.32;32.10;;;;;;;7.68;100.00;100174.19;6087439;19;20013;-75
2024/03/11 09:11:47;;;;;;;81.78;31.10;;;;;;;7.63;100.00;100170.91;6086978;19;20027;-75
2024/03/11 09:13:53;;;;;;;76.82;29.42;;;;;;;7.64;100.00;100168.25;6089140;19;20533;-74
2024/03/11 09:15:59;;;;;;;83.63;30.35;;;;;;;7.67;100.00;100172.50;6089173;19;20380;-75
2024/03/11 09:18:04;;;;;;;84.32;32.72;;;;;;;7.59;100.00;100171.94;6089835;19;20006;-76
2024/03/11 09:20:15;;;;;;;86.47;29.45;;;;;;;7.65;100.00;100174.31;6087385;19;20019;-75
2024/03/11 09:22:20;;;;;;;75.07;30.77;;;;;;;7.55;100.00;100168.59;6085821;19;20034;-75
2024/03/11 09:24:31;;;;;;;101.07;34.15;;;;;;;7.49;100.00;100168.81;6087709;19;20489;-75
2024/03/11 09:26:38;;;;;;;81.88;31.63;;;;;;;7.57;100.00;100182.47;6089660;19;20030;-76
2024/03/11 09:28:44;;;;;;;88.63;33.75;;;;;;;7.58;100.00;100178.06;6088193;19;20389;-75
2024/03/11 09:30:49;;;;;;;84.70;31.88;;;;;;;7.51;100.00;100187.09;6085834;19;20545;-74
2024/03/11 09:32:55;;;;;;;97.97;32.10;;;;;;;7.35;100.00;100185.03;6085971;19;20002;-76
2024/03/11 09:35:00;;;;;;;97.25;35.20;;;;;;;7.33;100.00;100186.84;6087982;19;20451;-74
2024/03/11 09:37:08;;;;;;;95.47;32.88;;;;;;;7.33;100.00;100189.47;6088331;19;20010;-77